Home > Products > Valid Products > TAF

000
FTUS46 KPQR 300520
TAFPDX
TAF
KPDX 300520Z 3006/3106 30008KT P6SM SKC
     FM300800 VRB04KT P6SM SKC
     FM301800 30010KT P6SM SKC
     FM302200 32012G22KT P6SM SKC=



000
FTUS46 KPQR 300520
TAFTTD
TAF
KTTD 300520Z 3006/3106 VRB05KT P6SM SKC=



000
FTUS46 KPQR 300520
TAFHIO
TAF
KHIO 300520Z 3006/3106 32005KT P6SM SKC
     FM300900 VRB03KT P6SM SKC
     FM302100 36012G20KT P6SM SKC=



000
FTUS46 KPQR 300520
TAFPDX
TAF
KPDX 300520Z 3006/3106 30008KT P6SM SKC
     FM300800 VRB04KT P6SM SKC
     FM301800 30010KT P6SM SKC
     FM302200 32012G22KT P6SM SKC=



000
FTUS46 KPQR 300520
TAFONP
TAF
KONP 300520Z 3006/3106 36008KT 5SM BR SKC
     FM301000 04006KT 4SM BR SKC
     FM301800 34012KT P6SM SKC
     FM302000 34016G22KT P6SM SKC=



000
FTUS46 KPQR 300520
TAFTTD
TAF
KTTD 300520Z 3006/3106 VRB05KT P6SM SKC=



000
FTUS46 KPQR 300520
TAFPDX
TAF
KPDX 300520Z 3006/3106 30008KT P6SM SKC
     FM300800 VRB04KT P6SM SKC
     FM301800 30010KT P6SM SKC
     FM302200 32012G22KT P6SM SKC=



000
FTUS46 KPQR 300520
TAFEUG
TAF
KEUG 300520Z 3006/3106 01005KT P6SM SKC
     FM301900 01010KT P6SM SKC=



000
FTUS46 KPQR 300520
TAFEUG
TAF
KEUG 300520Z 3006/3106 01005KT P6SM SKC
     FM301900 01010KT P6SM SKC=



000
FTUS46 KPQR 300520
TAFONP
TAF
KONP 300520Z 3006/3106 36008KT 5SM BR SKC
     FM301000 04006KT 4SM BR SKC
     FM301800 34012KT P6SM SKC
     FM302000 34016G22KT P6SM SKC=



000
FTUS46 KPQR 300520
TAFSLE
TAF
KSLE 300520Z 3006/3106 36004KT P6SM SKC
     FM301800 36010G19KT P6SM SKC=



000
FTUS46 KPQR 300520
TAFAST
TAF
KAST 300520Z 3006/3106 32005KT P6SM SKC
     FM301700 34008KT P6SM SKC
     FM301900 33012KT P6SM SKC=



000
FTUS46 KPQR 300520
TAFSLE
TAF
KSLE 300520Z 3006/3106 36004KT P6SM SKC
     FM301800 36010G19KT P6SM SKC=



000
FTUS46 KPQR 300520
TAFEUG
TAF
KEUG 300520Z 3006/3106 01005KT P6SM SKC
     FM301900 01010KT P6SM SKC=



000
FTUS46 KPQR 300520
TAFHIO
TAF
KHIO 300520Z 3006/3106 32005KT P6SM SKC
     FM300900 VRB03KT P6SM SKC
     FM302100 36012G20KT P6SM SKC=



000
FTUS46 KPQR 300520
TAFONP
TAF
KONP 300520Z 3006/3106 36008KT 5SM BR SKC
     FM301000 04006KT 4SM BR SKC
     FM301800 34012KT P6SM SKC
     FM302000 34016G22KT P6SM SKC=



000
FTUS46 KPQR 300520
TAFSLE
TAF
KSLE 300520Z 3006/3106 36004KT P6SM SKC
     FM301800 36010G19KT P6SM SKC=



000
FTUS46 KPQR 300520
TAFEUG
TAF
KEUG 300520Z 3006/3106 01005KT P6SM SKC
     FM301900 01010KT P6SM SKC=



000
FTUS46 KPQR 300520
TAFPDX
TAF
KPDX 300520Z 3006/3106 30008KT P6SM SKC
     FM300800 VRB04KT P6SM SKC
     FM301800 30010KT P6SM SKC
     FM302200 32012G22KT P6SM SKC=



000
FTUS46 KPQR 300520
TAFHIO
TAF
KHIO 300520Z 3006/3106 32005KT P6SM SKC
     FM300900 VRB03KT P6SM SKC
     FM302100 36012G20KT P6SM SKC=



000
FTUS46 KPQR 300520
TAFAST
TAF
KAST 300520Z 3006/3106 32005KT P6SM SKC
     FM301700 34008KT P6SM SKC
     FM301900 33012KT P6SM SKC=



000
FTUS46 KPQR 300520
TAFTTD
TAF
KTTD 300520Z 3006/3106 VRB05KT P6SM SKC=



000
FTUS46 KPQR 300520
TAFHIO
TAF
KHIO 300520Z 3006/3106 32005KT P6SM SKC
     FM300900 VRB03KT P6SM SKC
     FM302100 36012G20KT P6SM SKC=



000
FTUS46 KPQR 300520
TAFAST
TAF
KAST 300520Z 3006/3106 32005KT P6SM SKC
     FM301700 34008KT P6SM SKC
     FM301900 33012KT P6SM SKC=



000
FTUS46 KPQR 300520
TAFSLE
TAF
KSLE 300520Z 3006/3106 36004KT P6SM SKC
     FM301800 36010G19KT P6SM SKC=



000
FTUS46 KPQR 300520
TAFTTD
TAF
KTTD 300520Z 3006/3106 VRB05KT P6SM SKC=



000
FTUS46 KPQR 300520
TAFONP
TAF
KONP 300520Z 3006/3106 36008KT 5SM BR SKC
     FM301000 04006KT 4SM BR SKC
     FM301800 34012KT P6SM SKC
     FM302000 34016G22KT P6SM SKC=



000
FTUS46 KPQR 300520
TAFAST
TAF
KAST 300520Z 3006/3106 32005KT P6SM SKC
     FM301700 34008KT P6SM SKC
     FM301900 33012KT P6SM SKC=



000
FTUS46 KPQR 300251 AAA
TAFPDX
TAF AMD
KPDX 300251Z 3003/3024 32010KT P6SM SKC
     FM300600 30005KT P6SM SKC
     FM301800 30010KT P6SM SKC
     FM302200 32012G22KT P6SM SKC=



000
FTUS46 KPQR 300251 AAA
TAFPDX
TAF AMD
KPDX 300251Z 3003/3024 32010KT P6SM SKC
     FM300600 30005KT P6SM SKC
     FM301800 30010KT P6SM SKC
     FM302200 32012G22KT P6SM SKC=



000
FTUS46 KPQR 300056 AAA
TAFHIO
TAF AMD
KHIO 300056Z 3001/3024 36008KT P6SM SKC
     FM300300 32005KT P6SM SKC
     FM300900 VRB03KT P6SM SKC
     FM302100 36012G20KT P6SM SKC=



000
FTUS46 KPQR 300056 AAA
TAFHIO
TAF AMD
KHIO 300056Z 3001/3024 36008KT P6SM SKC
     FM300300 32005KT P6SM SKC
     FM300900 VRB03KT P6SM SKC
     FM302100 36012G20KT P6SM SKC=



000
FTUS46 KPQR 292320
TAFPDX
TAF
KPDX 292320Z 3000/3024 32012G22KT P6SM SKC
     FM300400 30005KT P6SM SKC
     FM301800 30010KT P6SM SKC
     FM302200 32012G22KT P6SM SKC=



000
FTUS46 KPQR 292320
TAFEUG
TAF
KEUG 292320Z 3000/3024 01014G22KT P6SM SKC
     FM300400 01005KT P6SM SKC
     FM301900 01010KT P6SM SKC=



000
FTUS46 KPQR 292320
TAFEUG
TAF
KEUG 292320Z 3000/3024 01014G22KT P6SM SKC
     FM300400 01005KT P6SM SKC
     FM301900 01010KT P6SM SKC=



000
FTUS46 KPQR 292320
TAFPDX
TAF
KPDX 292320Z 3000/3024 32012G22KT P6SM SKC
     FM300400 30005KT P6SM SKC
     FM301800 30010KT P6SM SKC
     FM302200 32012G22KT P6SM SKC=



000
FTUS46 KPQR 292320
TAFHIO
TAF
KHIO 292320Z 3000/3024 36012G20KT P6SM SKC
     FM300300 32005KT P6SM SKC
     FM300900 VRB03KT P6SM SKC
     FM302100 36012G20KT P6SM SKC=



000
FTUS46 KPQR 292320
TAFONP
TAF
KONP 292320Z 3000/3024 34021G29KT P6SM SKC
     FM300300 36008KT P6SM SKC
     FM301000 04006KT P6SM SKC
     FM301800 34012KT P6SM SKC
     FM302000 34016G22KT P6SM SKC=



000
FTUS46 KPQR 292320
TAFONP
TAF
KONP 292320Z 3000/3024 34021G29KT P6SM SKC
     FM300300 36008KT P6SM SKC
     FM301000 04006KT P6SM SKC
     FM301800 34012KT P6SM SKC
     FM302000 34016G22KT P6SM SKC=



000
FTUS46 KPQR 292320
TAFHIO
TAF
KHIO 292320Z 3000/3024 36012G20KT P6SM SKC
     FM300300 32005KT P6SM SKC
     FM300900 VRB03KT P6SM SKC
     FM302100 36012G20KT P6SM SKC=



000
FTUS46 KPQR 292320
TAFSLE
TAF
KSLE 292320Z 3000/3024 36011G19KT P6SM SKC
     FM300400 36004KT P6SM SKC
     FM301800 36011G19KT P6SM SKC=



000
FTUS46 KPQR 292320
TAFSLE
TAF
KSLE 292320Z 3000/3024 36011G19KT P6SM SKC
     FM300400 36004KT P6SM SKC
     FM301800 36011G19KT P6SM SKC=



000
FTUS46 KPQR 292320
TAFAST
TAF
KAST 292320Z 3000/3024 33015G24KT P6SM FEW005
     FM300500 32006KT P6SM SKC
     FM301900 33013KT P6SM SKC=



000
FTUS46 KPQR 292320
TAFTTD
TAF
KTTD 292320Z 3000/3024 VRB05KT P6SM SKC=



000
FTUS46 KPQR 292320
TAFAST
TAF
KAST 292320Z 3000/3024 33015G24KT P6SM FEW005
     FM300500 32006KT P6SM SKC
     FM301900 33013KT P6SM SKC=



000
FTUS46 KPQR 292320
TAFTTD
TAF
KTTD 292320Z 3000/3024 VRB05KT P6SM SKC=



000
FTUS46 KPQR 292113 AAB
TAFAST
TAF AMD
KAST 292113Z 2921/3018 34010KT P6SM SKC
     FM292200 33015G24KT P6SM FEW005
     FM300500 32006KT P6SM SKC=



000
FTUS46 KPQR 292050 AAB
TAFPDX
TAF AMD
KPDX 292050Z 2921/3018 30010KT P6SM SKC
     FM292200 32012G22KT P6SM SKC
     FM300400 30005KT P6SM SKC=



000
FTUS46 KPQR 292050 AAB
TAFPDX
TAF AMD
KPDX 292050Z 2921/3018 30010KT P6SM SKC
     FM292200 32012G22KT P6SM SKC
     FM300400 30005KT P6SM SKC=



000
FTUS46 KPQR 292022 AAA
TAFSLE
TAF AMD
KSLE 292022Z 2920/3018 36007KT P6SM SKC
     FM292200 36011G19KT P6SM SKC
     FM300400 36004KT P6SM SKC=



000
FTUS46 KPQR 292022 AAA
TAFSLE
TAF AMD
KSLE 292022Z 2920/3018 36007KT P6SM SKC
     FM292200 36011G19KT P6SM SKC
     FM300400 36004KT P6SM SKC=



000
FTUS46 KPQR 291943 AAA
TAFPDX
TAF AMD
KPDX 291943Z 2920/3018 33005KT P6SM SKC
     FM292200 32012G22KT P6SM SKC
     FM300400 30005KT P6SM SKC=



000
FTUS46 KPQR 291943 AAA
TAFPDX
TAF AMD
KPDX 291943Z 2920/3018 33005KT P6SM SKC
     FM292200 32012G22KT P6SM SKC
     FM300400 30005KT P6SM SKC=



000
FTUS46 KPQR 291943 AAA
TAFPDX
TAF AMD
KPDX 291943Z 2920/3018 33005KT P6SM SKC
     FM292200 32012G22KT P6SM SKC
     FM300400 30005KT P6SM SKC=



000
FTUS46 KPQR 291939 AAA
TAFAST
TAF AMD
KAST 291939Z 2920/3018 34010KT P6SM SKC
     FM292200 33015G24KT P6SM SKC
     FM300500 32006KT P6SM SKC=



000
FTUS46 KPQR 291939 AAA
TAFAST
TAF AMD
KAST 291939Z 2920/3018 34010KT P6SM SKC
     FM292200 33015G24KT P6SM SKC
     FM300500 32006KT P6SM SKC=



000
FTUS46 KPQR 291929 AAA
TAFONP
TAF AMD
KONP 291929Z 2919/3018 34012KT P6SM SKC
     FM292100 34021G29KT P6SM SKC
     FM300300 36008KT P6SM SKC
     FM301000 04006KT P6SM SKC=



000
FTUS46 KPQR 291929 AAA
TAFONP
TAF AMD
KONP 291929Z 2919/3018 34012KT P6SM SKC
     FM292100 34021G29KT P6SM SKC
     FM300300 36008KT P6SM SKC
     FM301000 04006KT P6SM SKC=



000
FTUS46 KPQR 291725
TAFEUG
TAF
KEUG 291725Z 2918/3018 01011KT P6SM SKC
     FM292100 01016G24KT P6SM SKC
     FM300400 01005KT P6SM SKC=



000
FTUS46 KPQR 291725
TAFONP
TAF
KONP 291725Z 2918/3018 34012KT P6SM SKC
     FM292100 34021G29KT P6SM SCT005
     FM300300 36008KT P6SM SKC
     FM301000 04006KT P6SM SKC=



000
FTUS46 KPQR 291725
TAFSLE
TAF
KSLE 291725Z 2918/3018 35007KT P6SM SKC
     FM292000 36011G19KT P6SM SKC
     FM300400 36004KT P6SM SKC=



000
FTUS46 KPQR 291725
TAFAST
TAF
KAST 291725Z 2918/3018 34005KT P6SM SKC
     FM292000 36010KT P6SM SKC
     FM292200 33015G24KT P6SM FEW005
     FM300500 32006KT P6SM SKC=



000
FTUS46 KPQR 291725
TAFAST
TAF
KAST 291725Z 2918/3018 34005KT P6SM SKC
     FM292000 36010KT P6SM SKC
     FM292200 33015G24KT P6SM FEW005
     FM300500 32006KT P6SM SKC=



000
FTUS46 KPQR 291725
TAFPDX
TAF
KPDX 291725Z 2918/3018 33005KT P6SM SKC
     FM292000 32012G22KT P6SM SKC
     FM300400 30005KT P6SM SKC=



000
FTUS46 KPQR 291725
TAFEUG
TAF
KEUG 291725Z 2918/3018 01011KT P6SM SKC
     FM292100 01016G24KT P6SM SKC
     FM300400 01005KT P6SM SKC=



000
FTUS46 KPQR 291725
TAFPDX
TAF
KPDX 291725Z 2918/3018 33005KT P6SM SKC
     FM292000 32012G22KT P6SM SKC
     FM300400 30005KT P6SM SKC=



000
FTUS46 KPQR 291725
TAFHIO
TAF
KHIO 291725Z 2918/3018 VRB04KT P6SM SKC
     FM292100 36012G20KT P6SM SKC
     FM300300 32005KT P6SM SKC=



000
FTUS46 KPQR 291725
TAFTTD
TAF
KTTD 291725Z 2918/3018 VRB05KT P6SM SKC=



000
FTUS46 KPQR 291725
TAFTTD
TAF
KTTD 291725Z 2918/3018 VRB05KT P6SM SKC=



000
FTUS46 KPQR 291725
TAFSLE
TAF
KSLE 291725Z 2918/3018 35007KT P6SM SKC
     FM292000 36011G19KT P6SM SKC
     FM300400 36004KT P6SM SKC=



000
FTUS46 KPQR 291725
TAFONP
TAF
KONP 291725Z 2918/3018 34012KT P6SM SKC
     FM292100 34021G29KT P6SM SCT005
     FM300300 36008KT P6SM SKC
     FM301000 04006KT P6SM SKC=



000
FTUS46 KPQR 291725
TAFHIO
TAF
KHIO 291725Z 2918/3018 VRB04KT P6SM SKC
     FM292100 36012G20KT P6SM SKC
     FM300300 32005KT P6SM SKC=



000
FTUS46 KPQR 291725
TAFEUG
TAF
KEUG 291725Z 2918/3018 01011KT P6SM SKC
     FM292100 01016G24KT P6SM SKC
     FM300400 01005KT P6SM SKC=



000
FTUS46 KPQR 291725
TAFONP
TAF
KONP 291725Z 2918/3018 34012KT P6SM SKC
     FM292100 34021G29KT P6SM SCT005
     FM300300 36008KT P6SM SKC
     FM301000 04006KT P6SM SKC=



000
FTUS46 KPQR 291725
TAFAST
TAF
KAST 291725Z 2918/3018 34005KT P6SM SKC
     FM292000 36010KT P6SM SKC
     FM292200 33015G24KT P6SM FEW005
     FM300500 32006KT P6SM SKC=



000
FTUS46 KPQR 291725
TAFHIO
TAF
KHIO 291725Z 2918/3018 VRB04KT P6SM SKC
     FM292100 36012G20KT P6SM SKC
     FM300300 32005KT P6SM SKC=



000
FTUS46 KPQR 291725
TAFSLE
TAF
KSLE 291725Z 2918/3018 35007KT P6SM SKC
     FM292000 36011G19KT P6SM SKC
     FM300400 36004KT P6SM SKC=



000
FTUS46 KPQR 291725
TAFPDX
TAF
KPDX 291725Z 2918/3018 33005KT P6SM SKC
     FM292000 32012G22KT P6SM SKC
     FM300400 30005KT P6SM SKC=



000
FTUS46 KPQR 291725
TAFEUG
TAF
KEUG 291725Z 2918/3018 01011KT P6SM SKC
     FM292100 01016G24KT P6SM SKC
     FM300400 01005KT P6SM SKC=



000
FTUS46 KPQR 291725
TAFHIO
TAF
KHIO 291725Z 2918/3018 VRB04KT P6SM SKC
     FM292100 36012G20KT P6SM SKC
     FM300300 32005KT P6SM SKC=



000
FTUS46 KPQR 291725
TAFONP
TAF
KONP 291725Z 2918/3018 34012KT P6SM SKC
     FM292100 34021G29KT P6SM SCT005
     FM300300 36008KT P6SM SKC
     FM301000 04006KT P6SM SKC=



000
FTUS46 KPQR 291725
TAFTTD
TAF
KTTD 291725Z 2918/3018 VRB05KT P6SM SKC=



000
FTUS46 KPQR 291725
TAFSLE
TAF
KSLE 291725Z 2918/3018 35007KT P6SM SKC
     FM292000 36011G19KT P6SM SKC
     FM300400 36004KT P6SM SKC=



000
FTUS46 KPQR 291725
TAFPDX
TAF
KPDX 291725Z 2918/3018 33005KT P6SM SKC
     FM292000 32012G22KT P6SM SKC
     FM300400 30005KT P6SM SKC=



000
FTUS46 KPQR 291725
TAFTTD
TAF
KTTD 291725Z 2918/3018 VRB05KT P6SM SKC=



000
FTUS46 KPQR 291546 AAA
TAFAST
TAF AMD
KAST 291546Z 2916/3012 VRB03KT P6SM SKC
     FM291700 36010KT P6SM FEW005
     FM292200 33015G24KT P6SM SKC
     FM300500 32008KT P6SM SKC=



000
FTUS46 KPQR 291546 AAA
TAFAST
TAF AMD
KAST 291546Z 2916/3012 VRB03KT P6SM SKC
     FM291700 36010KT P6SM FEW005
     FM292200 33015G24KT P6SM SKC
     FM300500 32008KT P6SM SKC=



000
FTUS46 KPQR 291543 AAA
TAFONP
TAF AMD
KONP 291543Z 2916/3012 34004KT P6SM SKC
     FM291800 34015KT P6SM SKC
     FM292100 34021G32KT P6SM SCT005
     FM300700 36008KT P6SM SKC=



000
FTUS46 KPQR 291543 AAA
TAFONP
TAF AMD
KONP 291543Z 2916/3012 34004KT P6SM SKC
     FM291800 34015KT P6SM SKC
     FM292100 34021G32KT P6SM SCT005
     FM300700 36008KT P6SM SKC=



000
FTUS46 KPQR 291543 AAA
TAFONP
TAF AMD
KONP 291543Z 2916/3012 34004KT P6SM SKC
     FM291800 34015KT P6SM SKC
     FM292100 34021G32KT P6SM SCT005
     FM300700 36008KT P6SM SKC=



000
FTUS46 KPQR 291453 AAA
TAFPDX
TAF AMD
KPDX 291453Z 2915/3012 33005KT P6SM SKC
     FM292000 32012G22KT P6SM SKC
     FM300400 30005KT P6SM SKC=



000
FTUS46 KPQR 291453 AAA
TAFPDX
TAF AMD
KPDX 291453Z 2915/3012 33005KT P6SM SKC
     FM292000 32012G22KT P6SM SKC
     FM300400 30005KT P6SM SKC=



000
FTUS46 KPQR 291453 AAA
TAFPDX
TAF AMD
KPDX 291453Z 2915/3012 33005KT P6SM SKC
     FM292000 32012G22KT P6SM SKC
     FM300400 30005KT P6SM SKC=



000
FTUS46 KPQR 291453 AAA
TAFPDX
TAF AMD
KPDX 291453Z 2915/3012 33005KT P6SM SKC
     FM292000 32012G22KT P6SM SKC
     FM300400 30005KT P6SM SKC=



000
FTUS46 KPQR 291120
TAFPDX
TAF
KPDX 291120Z 2912/3012 31005KT P6SM SKC
     FM292000 32011G22KT P6SM SKC
     FM300400 30005KT P6SM SKC=



000
FTUS46 KPQR 291120
TAFHIO
TAF
KHIO 291120Z 2912/3012 VRB04KT P6SM SKC
     FM292000 36009KT P6SM SKC
     FM300300 32005KT P6SM SKC=



000
FTUS46 KPQR 291120
TAFONP
TAF
KONP 291120Z 2912/3012 VRB03KT P6SM SKC
      TEMPO 2912/2915 6SM BR
     FM291600 34015KT P6SM SKC
     FM292100 34021G32KT P6SM SKC
     FM300700 36008KT P6SM SKC=



000
FTUS46 KPQR 291120
TAFONP
TAF
KONP 291120Z 2912/3012 VRB03KT P6SM SKC
      TEMPO 2912/2915 6SM BR
     FM291600 34015KT P6SM SKC
     FM292100 34021G32KT P6SM SKC
     FM300700 36008KT P6SM SKC=



000
FTUS46 KPQR 291120
TAFONP
TAF
KONP 291120Z 2912/3012 VRB03KT P6SM SKC
      TEMPO 2912/2915 6SM BR
     FM291600 34015KT P6SM SKC
     FM292100 34021G32KT P6SM SKC
     FM300700 36008KT P6SM SKC=



000
FTUS46 KPQR 291120
TAFTTD
TAF
KTTD 291120Z 2912/3012 VRB05KT P6SM SKC=



000
FTUS46 KPQR 291120
TAFEUG
TAF
KEUG 291120Z 2912/3012 36005KT P6SM SKC
     FM291800 01016G24KT P6SM SKC
     FM300400 01005KT P6SM SKC=



000
FTUS46 KPQR 291120
TAFAST
TAF
KAST 291120Z 2912/3012 VRB03KT P6SM SKC
     FM291700 36010KT P6SM SKC
     FM292200 33015G24KT P6SM SKC
     FM300500 32008KT P6SM SKC=



000
FTUS46 KPQR 291120
TAFTTD
TAF
KTTD 291120Z 2912/3012 VRB05KT P6SM SKC=



000
FTUS46 KPQR 291120
TAFTTD
TAF
KTTD 291120Z 2912/3012 VRB05KT P6SM SKC=



000
FTUS46 KPQR 291120
TAFAST
TAF
KAST 291120Z 2912/3012 VRB03KT P6SM SKC
     FM291700 36010KT P6SM SKC
     FM292200 33015G24KT P6SM SKC
     FM300500 32008KT P6SM SKC=



000
FTUS46 KPQR 291120
TAFHIO
TAF
KHIO 291120Z 2912/3012 VRB04KT P6SM SKC
     FM292000 36009KT P6SM SKC
     FM300300 32005KT P6SM SKC=



000
FTUS46 KPQR 291120
TAFPDX
TAF
KPDX 291120Z 2912/3012 31005KT P6SM SKC
     FM292000 32011G22KT P6SM SKC
     FM300400 30005KT P6SM SKC=



000
FTUS46 KPQR 291120
TAFSLE
TAF
KSLE 291120Z 2912/3012 35007KT P6SM SKC
     FM291900 36011G19KT P6SM SKC
     FM300400 36004KT P6SM SKC=



000
FTUS46 KPQR 291120
TAFEUG
TAF
KEUG 291120Z 2912/3012 36005KT P6SM SKC
     FM291800 01016G24KT P6SM SKC
     FM300400 01005KT P6SM SKC=



000
FTUS46 KPQR 291120
TAFHIO
TAF
KHIO 291120Z 2912/3012 VRB04KT P6SM SKC
     FM292000 36009KT P6SM SKC
     FM300300 32005KT P6SM SKC=



000
FTUS46 KPQR 291120
TAFAST
TAF
KAST 291120Z 2912/3012 VRB03KT P6SM SKC
     FM291700 36010KT P6SM SKC
     FM292200 33015G24KT P6SM SKC
     FM300500 32008KT P6SM SKC=



000
FTUS46 KPQR 291120
TAFEUG
TAF
KEUG 291120Z 2912/3012 36005KT P6SM SKC
     FM291800 01016G24KT P6SM SKC
     FM300400 01005KT P6SM SKC=



000
FTUS46 KPQR 291120
TAFSLE
TAF
KSLE 291120Z 2912/3012 35007KT P6SM SKC
     FM291900 36011G19KT P6SM SKC
     FM300400 36004KT P6SM SKC=



000
FTUS46 KPQR 291120
TAFPDX
TAF
KPDX 291120Z 2912/3012 31005KT P6SM SKC
     FM292000 32011G22KT P6SM SKC
     FM300400 30005KT P6SM SKC=



000
FTUS46 KPQR 291120
TAFEUG
TAF
KEUG 291120Z 2912/3012 36005KT P6SM SKC
     FM291800 01016G24KT P6SM SKC
     FM300400 01005KT P6SM SKC=



000
FTUS46 KPQR 291120
TAFHIO
TAF
KHIO 291120Z 2912/3012 VRB04KT P6SM SKC
     FM292000 36009KT P6SM SKC
     FM300300 32005KT P6SM SKC=



000
FTUS46 KPQR 291120
TAFPDX
TAF
KPDX 291120Z 2912/3012 31005KT P6SM SKC
     FM292000 32011G22KT P6SM SKC
     FM300400 30005KT P6SM SKC=



000
FTUS46 KPQR 291120
TAFAST
TAF
KAST 291120Z 2912/3012 VRB03KT P6SM SKC
     FM291700 36010KT P6SM SKC
     FM292200 33015G24KT P6SM SKC
     FM300500 32008KT P6SM SKC=



000
FTUS46 KPQR 291120
TAFONP
TAF
KONP 291120Z 2912/3012 VRB03KT P6SM SKC
      TEMPO 2912/2915 6SM BR
     FM291600 34015KT P6SM SKC
     FM292100 34021G32KT P6SM SKC
     FM300700 36008KT P6SM SKC=



000
FTUS46 KPQR 291120
TAFTTD
TAF
KTTD 291120Z 2912/3012 VRB05KT P6SM SKC=



000
FTUS46 KPQR 291120
TAFSLE
TAF
KSLE 291120Z 2912/3012 35007KT P6SM SKC
     FM291900 36011G19KT P6SM SKC
     FM300400 36004KT P6SM SKC=



000
FTUS46 KPQR 291120
TAFSLE
TAF
KSLE 291120Z 2912/3012 35007KT P6SM SKC
     FM291900 36011G19KT P6SM SKC
     FM300400 36004KT P6SM SKC=



000
FTUS46 KPQR 291012 AAA
TAFAST
TAF AMD
KAST 291012Z 2910/3006 34005KT P6SM SCT022
     FM291900 36012KT P6SM SKC
     FM292200 33015G22KT P6SM SKC=



000
FTUS46 KPQR 290856 AAA
TAFPDX
TAF AMD
KPDX 290856Z 2909/3006 31004KT P6SM SKC
     FM291900 32008KT P6SM SKC
     FM292200 32011KT P6SM SKC=



000
FTUS46 KPQR 290856 AAA
TAFPDX
TAF AMD
KPDX 290856Z 2909/3006 31004KT P6SM SKC
     FM291900 32008KT P6SM SKC
     FM292200 32011KT P6SM SKC=



000
FTUS46 KPQR 290856 AAA
TAFPDX
TAF AMD
KPDX 290856Z 2909/3006 31004KT P6SM SKC
     FM291900 32008KT P6SM SKC
     FM292200 32011KT P6SM SKC=



000
FTUS46 KPQR 290856 AAA
TAFPDX
TAF AMD
KPDX 290856Z 2909/3006 31004KT P6SM SKC
     FM291900 32008KT P6SM SKC
     FM292200 32011KT P6SM SKC=



000
FTUS46 KPQR 290520
TAFAST
TAF
KAST 290520Z 2906/3006 32010KT P6SM SKC
     FM290800 34005KT P6SM SCT022
      TEMPO 2910/2914 BKN022
     FM291900 36012KT P6SM SKC
     FM292200 33015G22KT P6SM SKC=



000
FTUS46 KPQR 290520
TAFHIO
TAF
KHIO 290520Z 2906/3006 35008KT P6SM SKC
     FM290900 VRB03KT P6SM SKC
     FM291900 36007KT P6SM SKC
     FM292300 36010KT P6SM SKC=



000
FTUS46 KPQR 290520
TAFPDX
TAF
KPDX 290520Z 2906/3006 32008G15KT P6SM SKC
     FM290900 32004KT P6SM SKC
     FM291900 32008KT P6SM SKC
     FM292200 32011KT P6SM SKC=



000
FTUS46 KPQR 290520
TAFPDX
TAF
KPDX 290520Z 2906/3006 32008G15KT P6SM SKC
     FM290900 32004KT P6SM SKC
     FM291900 32008KT P6SM SKC
     FM292200 32011KT P6SM SKC=



000
FTUS46 KPQR 290520
TAFHIO
TAF
KHIO 290520Z 2906/3006 35008KT P6SM SKC
     FM290900 VRB03KT P6SM SKC
     FM291900 36007KT P6SM SKC
     FM292300 36010KT P6SM SKC=



000
FTUS46 KPQR 290520
TAFONP
TAF
KONP 290520Z 2906/3006 36007KT P6SM SKC
     FM291000 03003KT P6SM SKC
     FM291800 34015G25KT P6SM SKC
     FM292100 34020G30KT P6SM SKC=



000
FTUS46 KPQR 290520
TAFAST
TAF
KAST 290520Z 2906/3006 32010KT P6SM SKC
     FM290800 34005KT P6SM SCT022
      TEMPO 2910/2914 BKN022
     FM291900 36012KT P6SM SKC
     FM292200 33015G22KT P6SM SKC=



000
FTUS46 KPQR 290520
TAFEUG
TAF
KEUG 290520Z 2906/3006 36008KT P6SM SKC
     FM291000 36003KT P6SM SKC
     FM291700 01012G20KT P6SM SKC=



000
FTUS46 KPQR 290520
TAFTTD
TAF
KTTD 290520Z 2906/3006 VRB04KT P6SM SKC=



000
FTUS46 KPQR 290520
TAFTTD
TAF
KTTD 290520Z 2906/3006 VRB04KT P6SM SKC=



000
FTUS46 KPQR 290520
TAFSLE
TAF
KSLE 290520Z 2906/3006 36008KT P6SM SKC
     FM290800 VRB03KT P6SM SKC
     FM291800 36008KT P6SM SKC
     FM292300 36012G20KT P6SM SKC=



000
FTUS46 KPQR 290520
TAFONP
TAF
KONP 290520Z 2906/3006 36007KT P6SM SKC
     FM291000 03003KT P6SM SKC
     FM291800 34015G25KT P6SM SKC
     FM292100 34020G30KT P6SM SKC=



000
FTUS46 KPQR 290520
TAFEUG
TAF
KEUG 290520Z 2906/3006 36008KT P6SM SKC
     FM291000 36003KT P6SM SKC
     FM291700 01012G20KT P6SM SKC=



000
FTUS46 KPQR 290520
TAFSLE
TAF
KSLE 290520Z 2906/3006 36008KT P6SM SKC
     FM290800 VRB03KT P6SM SKC
     FM291800 36008KT P6SM SKC
     FM292300 36012G20KT P6SM SKC=



000
FTUS46 KPQR 290252 AAA
TAFPDX
TAF AMD
KPDX 290252Z 2903/2924 32010G18KT P6SM SKC
     FM290500 32008KT P6SM SKC
     FM290900 32004KT P6SM SKC
     FM291900 32007KT P6SM SKC=



000
FTUS46 KPQR 290129 AAA
TAFHIO
TAF AMD
KHIO 290129Z 2901/2924 35012G20KT P6SM SKC
     FM290600 31005KT P6SM SKC
     FM290900 VRB03KT P6SM SKC
     FM291900 03005KT P6SM SKC=



000
FTUS46 KPQR 290129 AAA
TAFHIO
TAF AMD
KHIO 290129Z 2901/2924 35012G20KT P6SM SKC
     FM290600 31005KT P6SM SKC
     FM290900 VRB03KT P6SM SKC
     FM291900 03005KT P6SM SKC=



000
FTUS46 KPQR 282334
TAFSLE
TAF
KSLE 282334Z 2900/2924 01012G20KT P6SM SKC
     FM290600 36005KT P6SM SKC
     FM291800 36008KT P6SM SKC=



000
FTUS46 KPQR 282334
TAFSLE
TAF
KSLE 282334Z 2900/2924 01012G20KT P6SM SKC
     FM290600 36005KT P6SM SKC
     FM291800 36008KT P6SM SKC=



000
FTUS46 KPQR 282334
TAFAST
TAF
KAST 282334Z 2900/2924 32012G22KT P6SM SKC
     FM290300 32013KT P6SM FEW025
     FM290700 34005KT P6SM SCT022
      TEMPO 2910/2914 BKN022
     FM291400 36012KT P6SM SCT025=



000
FTUS46 KPQR 282334
TAFONP
TAF
KONP 282334Z 2900/2924 35018G24KT P6SM SKC
     FM290600 36005KT P6SM SKC
     FM291800 34009KT P6SM SKC=



000
FTUS46 KPQR 282334
TAFPDX
TAF
KPDX 282334Z 2900/2924 31010G18KT P6SM SKC
     FM290500 32008KT P6SM SKC
     FM290900 32004KT P6SM SKC
     FM291900 31007KT P6SM SKC=



000
FTUS46 KPQR 282334
TAFONP
TAF
KONP 282334Z 2900/2924 35018G24KT P6SM SKC
     FM290600 36005KT P6SM SKC
     FM291800 34009KT P6SM SKC=



000
FTUS46 KPQR 282334
TAFHIO
TAF
KHIO 282334Z 2900/2924 35010KT P6SM SKC
     FM290600 31005KT P6SM SKC
     FM290900 VRB03KT P6SM SKC
     FM291900 03005KT P6SM SKC=



000
FTUS46 KPQR 282334
TAFTTD
TAF
KTTD 282334Z 2900/2924 VRB04KT P6SM SKC=



000
FTUS46 KPQR 282334
TAFAST
TAF
KAST 282334Z 2900/2924 32012G22KT P6SM SKC
     FM290300 32013KT P6SM FEW025
     FM290700 34005KT P6SM SCT022
      TEMPO 2910/2914 BKN022
     FM291400 36012KT P6SM SCT025=



000
FTUS46 KPQR 282334
TAFPDX
TAF
KPDX 282334Z 2900/2924 31010G18KT P6SM SKC
     FM290500 32008KT P6SM SKC
     FM290900 32004KT P6SM SKC
     FM291900 31007KT P6SM SKC=



000
FTUS46 KPQR 282334
TAFSLE
TAF
KSLE 282334Z 2900/2924 01012G20KT P6SM SKC
     FM290600 36005KT P6SM SKC
     FM291800 36008KT P6SM SKC=



000
FTUS46 KPQR 282334
TAFSLE
TAF
KSLE 282334Z 2900/2924 01012G20KT P6SM SKC
     FM290600 36005KT P6SM SKC
     FM291800 36008KT P6SM SKC=



000
FTUS46 KPQR 282334
TAFHIO
TAF
KHIO 282334Z 2900/2924 35010KT P6SM SKC
     FM290600 31005KT P6SM SKC
     FM290900 VRB03KT P6SM SKC
     FM291900 03005KT P6SM SKC=



000
FTUS46 KPQR 282334
TAFTTD
TAF
KTTD 282334Z 2900/2924 VRB04KT P6SM SKC=



000
FTUS46 KPQR 282334
TAFEUG
TAF
KEUG 282334Z 2900/2924 01021G27KT P6SM SKC
     FM290500 36008KT P6SM SKC
     FM291000 36003KT P6SM SKC
     FM291800 01010G18KT P6SM SKC=



000
FTUS46 KPQR 282334
TAFEUG
TAF
KEUG 282334Z 2900/2924 01021G27KT P6SM SKC
     FM290500 36008KT P6SM SKC
     FM291000 36003KT P6SM SKC
     FM291800 01010G18KT P6SM SKC=



000
FTUS46 KPQR 282334
TAFEUG
TAF
KEUG 282334Z 2900/2924 01021G27KT P6SM SKC
     FM290500 36008KT P6SM SKC
     FM291000 36003KT P6SM SKC
     FM291800 01010G18KT P6SM SKC=



000
FTUS46 KPQR 282334
TAFEUG
TAF
KEUG 282334Z 2900/2924 01021G27KT P6SM SKC
     FM290500 36008KT P6SM SKC
     FM291000 36003KT P6SM SKC
     FM291800 01010G18KT P6SM SKC=



000
FTUS46 KPQR 282050 AAA
TAFPDX
TAF AMD
KPDX 282050Z 2821/2918 31011KT P6SM SKC
     FM282200 33012G18KT P6SM SKC
     FM290500 32008KT P6SM SKC
     FM290900 32002KT P6SM SKC
     FM291700 31007KT P6SM SKC=



000
FTUS46 KPQR 282050 AAA
TAFPDX
TAF AMD
KPDX 282050Z 2821/2918 31011KT P6SM SKC
     FM282200 33012G18KT P6SM SKC
     FM290500 32008KT P6SM SKC
     FM290900 32002KT P6SM SKC
     FM291700 31007KT P6SM SKC=



000
FTUS46 KPQR 281721
TAFHIO
TAF
KHIO 281721Z 2818/2918 VRB03KT P6SM SKC
     FM282300 36010KT P6SM SKC
     FM290800 31005KT P6SM SKC=



000
FTUS46 KPQR 281721
TAFONP
TAF
KONP 281721Z 2818/2918 35008KT P6SM SKC
     FM281900 35018G24KT P6SM SKC
     FM290500 36005KT P6SM SKC
     FM291600 34009KT P6SM SKC=



000
FTUS46 KPQR 281721
TAFEUG
TAF
KEUG 281721Z 2818/2918 36011G18KT P6SM SKC
     FM290000 01021G27KT P6SM SKC
     FM290500 36007KT P6SM SKC
     FM291000 36003KT P6SM SKC=



000
FTUS46 KPQR 281721
TAFTTD
TAF
KTTD 281721Z 2818/2918 VRB04KT P6SM SKC=



000
FTUS46 KPQR 281721
TAFPDX
TAF
KPDX 281721Z 2818/2918 34005KT P6SM SKC
     FM282200 33012G18KT P6SM SKC
     FM290500 32008KT P6SM SKC
     FM290900 32002KT P6SM SKC=



000
FTUS46 KPQR 281721
TAFSLE
TAF
KSLE 281721Z 2818/2918 35005KT P6SM SKC
     FM282100 01012G20KT P6SM SKC
     FM290600 36005KT P6SM SKC=



000
FTUS46 KPQR 281721
TAFAST
TAF
KAST 281721Z 2818/2918 34008KT P6SM SKC
     FM282300 32017G21KT P6SM SKC
     FM290300 32013KT P6SM FEW025
      TEMPO 2910/2914 BKN022
     FM291400 36012KT P6SM SCT025=



000
FTUS46 KPQR 281721
TAFEUG
TAF
KEUG 281721Z 2818/2918 36011G18KT P6SM SKC
     FM290000 01021G27KT P6SM SKC
     FM290500 36007KT P6SM SKC
     FM291000 36003KT P6SM SKC=



000
FTUS46 KPQR 281721
TAFTTD
TAF
KTTD 281721Z 2818/2918 VRB04KT P6SM SKC=



000
FTUS46 KPQR 281721
TAFPDX
TAF
KPDX 281721Z 2818/2918 34005KT P6SM SKC
     FM282200 33012G18KT P6SM SKC
     FM290500 32008KT P6SM SKC
     FM290900 32002KT P6SM SKC=



000
FTUS46 KPQR 281721
TAFONP
TAF
KONP 281721Z 2818/2918 35008KT P6SM SKC
     FM281900 35018G24KT P6SM SKC
     FM290500 36005KT P6SM SKC
     FM291600 34009KT P6SM SKC=



000
FTUS46 KPQR 281721
TAFHIO
TAF
KHIO 281721Z 2818/2918 VRB03KT P6SM SKC
     FM282300 36010KT P6SM SKC
     FM290800 31005KT P6SM SKC=



000
FTUS46 KPQR 281721
TAFAST
TAF
KAST 281721Z 2818/2918 34008KT P6SM SKC
     FM282300 32017G21KT P6SM SKC
     FM290300 32013KT P6SM FEW025
      TEMPO 2910/2914 BKN022
     FM291400 36012KT P6SM SCT025=



000
FTUS46 KPQR 281721
TAFSLE
TAF
KSLE 281721Z 2818/2918 35005KT P6SM SKC
     FM282100 01012G20KT P6SM SKC
     FM290600 36005KT P6SM SKC=



000
FTUS46 KPQR 281450 AAA
TAFPDX
TAF AMD
KPDX 281450Z 2815/2912 34005KT P6SM SKC
     FM282200 33012G18KT P6SM SKC
     FM290500 32008KT P6SM SKC
     FM290900 32002KT P6SM SKC=



000
FTUS46 KPQR 281450 AAA
TAFPDX
TAF AMD
KPDX 281450Z 2815/2912 34005KT P6SM SKC
     FM282200 33012G18KT P6SM SKC
     FM290500 32008KT P6SM SKC
     FM290900 32002KT P6SM SKC=



000
FTUS46 KPQR 281130
TAFONP
TAF
KONP 281130Z 2812/2912 VRB03KT P6SM SKC
     FM281700 35008KT P6SM SKC
     FM281900 35018G24KT P6SM SKC
     FM290500 36005KT P6SM SKC=



000
FTUS46 KPQR 281130
TAFTTD
TAF
KTTD 281130Z 2812/2912 VRB04KT P6SM SKC=



000
FTUS46 KPQR 281130
TAFHIO
TAF
KHIO 281130Z 2812/2912 VRB03KT P6SM SKC
     FM282300 36010KT P6SM SKC
     FM290800 31005KT P6SM SKC=



000
FTUS46 KPQR 281130
TAFTTD
TAF
KTTD 281130Z 2812/2912 VRB04KT P6SM SKC=



000
FTUS46 KPQR 281130
TAFAST
TAF
KAST 281130Z 2812/2912 VRB03KT P6SM SCT020
      TEMPO 2812/2816 OVC020
     FM281700 34008KT P6SM SKC
     FM282300 32017G21KT P6SM SKC
     FM290300 32013KT P6SM FEW025
      TEMPO 2908/2912 BKN022=



000
FTUS46 KPQR 281130
TAFAST
TAF
KAST 281130Z 2812/2912 VRB03KT P6SM SCT020
      TEMPO 2812/2816 OVC020
     FM281700 34008KT P6SM SKC
     FM282300 32017G21KT P6SM SKC
     FM290300 32013KT P6SM FEW025
      TEMPO 2908/2912 BKN022=



000
FTUS46 KPQR 281130
TAFSLE
TAF
KSLE 281130Z 2812/2912 35005KT P6SM SKC
     FM282100 01012G20KT P6SM SKC
     FM290400 36005KT P6SM SKC=



000
FTUS46 KPQR 281130
TAFSLE
TAF
KSLE 281130Z 2812/2912 35005KT P6SM SKC
     FM282100 01012G20KT P6SM SKC
     FM290400 36005KT P6SM SKC=



000
FTUS46 KPQR 281130
TAFHIO
TAF
KHIO 281130Z 2812/2912 VRB03KT P6SM SKC
     FM282300 36010KT P6SM SKC
     FM290800 31005KT P6SM SKC=



000
FTUS46 KPQR 281130
TAFPDX
TAF
KPDX 281130Z 2812/2912 34005KT P6SM SKC
     FM282200 33012G18KT P6SM SKC
     FM290500 32005KT P6SM SKC=



000
FTUS46 KPQR 281130
TAFEUG
TAF
KEUG 281130Z 2812/2912 36008KT P6SM SKC
     FM281800 36015G21KT P6SM SKC
     FM290000 01021G27KT P6SM SKC
     FM290300 36007KT P6SM SKC=



000
FTUS46 KPQR 281130
TAFPDX
TAF
KPDX 281130Z 2812/2912 34005KT P6SM SKC
     FM282200 33012G18KT P6SM SKC
     FM290500 32005KT P6SM SKC=



000
FTUS46 KPQR 281130
TAFONP
TAF
KONP 281130Z 2812/2912 VRB03KT P6SM SKC
     FM281700 35008KT P6SM SKC
     FM281900 35018G24KT P6SM SKC
     FM290500 36005KT P6SM SKC=



000
FTUS46 KPQR 281130
TAFEUG
TAF
KEUG 281130Z 2812/2912 36008KT P6SM SKC
     FM281800 36015G21KT P6SM SKC
     FM290000 01021G27KT P6SM SKC
     FM290300 36007KT P6SM SKC=



000
FTUS46 KPQR 281130
TAFTTD
TAF
KTTD 281130Z 2812/2912 VRB04KT P6SM SKC=



000
FTUS46 KPQR 281130
TAFHIO
TAF
KHIO 281130Z 2812/2912 VRB03KT P6SM SKC
     FM282300 36010KT P6SM SKC
     FM290800 31005KT P6SM SKC=



000
FTUS46 KPQR 281130
TAFONP
TAF
KONP 281130Z 2812/2912 VRB03KT P6SM SKC
     FM281700 35008KT P6SM SKC
     FM281900 35018G24KT P6SM SKC
     FM290500 36005KT P6SM SKC=



000
FTUS46 KPQR 281130
TAFSLE
TAF
KSLE 281130Z 2812/2912 35005KT P6SM SKC
     FM282100 01012G20KT P6SM SKC
     FM290400 36005KT P6SM SKC=



000
FTUS46 KPQR 281130
TAFSLE
TAF
KSLE 281130Z 2812/2912 35005KT P6SM SKC
     FM282100 01012G20KT P6SM SKC
     FM290400 36005KT P6SM SKC=



000
FTUS46 KPQR 281130
TAFAST
TAF
KAST 281130Z 2812/2912 VRB03KT P6SM SCT020
      TEMPO 2812/2816 OVC020
     FM281700 34008KT P6SM SKC
     FM282300 32017G21KT P6SM SKC
     FM290300 32013KT P6SM FEW025
      TEMPO 2908/2912 BKN022=



000
FTUS46 KPQR 281130
TAFTTD
TAF
KTTD 281130Z 2812/2912 VRB04KT P6SM SKC=



000
FTUS46 KPQR 281130
TAFAST
TAF
KAST 281130Z 2812/2912 VRB03KT P6SM SCT020
      TEMPO 2812/2816 OVC020
     FM281700 34008KT P6SM SKC
     FM282300 32017G21KT P6SM SKC
     FM290300 32013KT P6SM FEW025
      TEMPO 2908/2912 BKN022=



000
FTUS46 KPQR 281130
TAFHIO
TAF
KHIO 281130Z 2812/2912 VRB03KT P6SM SKC
     FM282300 36010KT P6SM SKC
     FM290800 31005KT P6SM SKC=



000
FTUS46 KPQR 281130
TAFPDX
TAF
KPDX 281130Z 2812/2912 34005KT P6SM SKC
     FM282200 33012G18KT P6SM SKC
     FM290500 32005KT P6SM SKC=



000
FTUS46 KPQR 281130
TAFEUG
TAF
KEUG 281130Z 2812/2912 36008KT P6SM SKC
     FM281800 36015G21KT P6SM SKC
     FM290000 01021G27KT P6SM SKC
     FM290300 36007KT P6SM SKC=



000
FTUS46 KPQR 281130
TAFPDX
TAF
KPDX 281130Z 2812/2912 34005KT P6SM SKC
     FM282200 33012G18KT P6SM SKC
     FM290500 32005KT P6SM SKC=



000
FTUS46 KPQR 281130
TAFONP
TAF
KONP 281130Z 2812/2912 VRB03KT P6SM SKC
     FM281700 35008KT P6SM SKC
     FM281900 35018G24KT P6SM SKC
     FM290500 36005KT P6SM SKC=



000
FTUS46 KPQR 281130
TAFEUG
TAF
KEUG 281130Z 2812/2912 36008KT P6SM SKC
     FM281800 36015G21KT P6SM SKC
     FM290000 01021G27KT P6SM SKC
     FM290300 36007KT P6SM SKC=



000
FTUS46 KPQR 280902 AAA
TAFPDX
TAF AMD
KPDX 280902Z 2809/2906 33006KT P6SM SKC
     FM281100 VRB03KT P6SM SCT025
     FM281700 34007KT P6SM SCT250
     FM290000 33012KT P6SM SKC=



000
FTUS46 KPQR 280902 AAA
TAFPDX
TAF AMD
KPDX 280902Z 2809/2906 33006KT P6SM SKC
     FM281100 VRB03KT P6SM SCT025
     FM281700 34007KT P6SM SCT250
     FM290000 33012KT P6SM SKC=



000
FTUS46 KPQR 280708 AAA
TAFONP
TAF AMD
KONP 280708Z 2807/2906 VRB03KT P6SM SKC
     FM281700 35010KT P6SM SKC
     FM281900 35018G24KT P6SM SKC=



000
FTUS46 KPQR 280708 AAA
TAFAST
TAF AMD
KAST 280708Z 2807/2906 32007KT P6SM SCT025
     FM281000 35003KT P6SM OVC022
     FM281800 35007KT P6SM SKC
     FM282300 32017G22KT P6SM SKC
     FM290300 32013KT P6SM SKC=



000
FTUS46 KPQR 280708 AAA
TAFONP
TAF AMD
KONP 280708Z 2807/2906 VRB03KT P6SM SKC
     FM281700 35010KT P6SM SKC
     FM281900 35018G24KT P6SM SKC=



000
FTUS46 KPQR 280708 AAA
TAFAST
TAF AMD
KAST 280708Z 2807/2906 32007KT P6SM SCT025
     FM281000 35003KT P6SM OVC022
     FM281800 35007KT P6SM SKC
     FM282300 32017G22KT P6SM SKC
     FM290300 32013KT P6SM SKC=



000
FTUS46 KPQR 280520
TAFONP
TAF
KONP 280520Z 2806/2906 35012KT P6SM SKC
     FM280900 VRB03KT P6SM SKC
     FM281700 35010KT P6SM SKC
     FM281900 35018G24KT P6SM SKC=



000
FTUS46 KPQR 280520
TAFTTD
TAF
KTTD 280520Z 2806/2906 33007KT P6SM SKC
     FM281000 00000KT P6SM SCT015
     FM281800 27003KT P6SM SCT250
     FM290000 32007KT P6SM SKC=



000
FTUS46 KPQR 280520
TAFPDX
TAF
KPDX 280520Z 2806/2906 33006KT P6SM SKC
     FM281100 VRB03KT P6SM SCT025
     FM281700 34007KT P6SM SCT250
     FM290000 33012KT P6SM SKC=



000
FTUS46 KPQR 280520
TAFONP
TAF
KONP 280520Z 2806/2906 35012KT P6SM SKC
     FM280900 VRB03KT P6SM SKC
     FM281700 35010KT P6SM SKC
     FM281900 35018G24KT P6SM SKC=



000
FTUS46 KPQR 280520
TAFHIO
TAF
KHIO 280520Z 2806/2906 32004KT P6SM SCT250
     FM281100 00000KT P6SM SCT025
     FM282300 36010KT P6SM SKC=



000
FTUS46 KPQR 280520
TAFAST
TAF
KAST 280520Z 2806/2906 32007KT P6SM OVC020
     FM281100 35003KT P6SM OVC015
     FM281800 35007KT P6SM SKC
     FM282300 32017G22KT P6SM SKC
     FM290300 32013KT P6SM SKC=



000
FTUS46 KPQR 280520
TAFTTD
TAF
KTTD 280520Z 2806/2906 33007KT P6SM SKC
     FM281000 00000KT P6SM SCT015
     FM281800 27003KT P6SM SCT250
     FM290000 32007KT P6SM SKC=



000
FTUS46 KPQR 280520
TAFSLE
TAF
KSLE 280520Z 2806/2906 31006KT P6SM SKC
     FM280700 VRB03KT P6SM SKC
     FM282100 01012G18KT P6SM SKC
     FM290200 36008KT P6SM SKC=



000
FTUS46 KPQR 280520
TAFAST
TAF
KAST 280520Z 2806/2906 32007KT P6SM OVC020
     FM281100 35003KT P6SM OVC015
     FM281800 35007KT P6SM SKC
     FM282300 32017G22KT P6SM SKC
     FM290300 32013KT P6SM SKC=



000
FTUS46 KPQR 280520
TAFEUG
TAF
KEUG 280520Z 2806/2906 01005KT P6SM SKC
     FM281500 01008KT P6SM SKC
     FM281800 36015G21KT P6SM SKC
     FM290000 01021G27KT P6SM SKC
     FM290300 36010KT P6SM SKC=



000
FTUS46 KPQR 280520
TAFHIO
TAF
KHIO 280520Z 2806/2906 32004KT P6SM SCT250
     FM281100 00000KT P6SM SCT025
     FM282300 36010KT P6SM SKC=



000
FTUS46 KPQR 280520
TAFSLE
TAF
KSLE 280520Z 2806/2906 31006KT P6SM SKC
     FM280700 VRB03KT P6SM SKC
     FM282100 01012G18KT P6SM SKC
     FM290200 36008KT P6SM SKC=



000
FTUS46 KPQR 280520
TAFEUG
TAF
KEUG 280520Z 2806/2906 01005KT P6SM SKC
     FM281500 01008KT P6SM SKC
     FM281800 36015G21KT P6SM SKC
     FM290000 01021G27KT P6SM SKC
     FM290300 36010KT P6SM SKC=



000
FTUS46 KPQR 280520
TAFPDX
TAF
KPDX 280520Z 2806/2906 33006KT P6SM SKC
     FM281100 VRB03KT P6SM SCT025
     FM281700 34007KT P6SM SCT250
     FM290000 33012KT P6SM SKC=



000
FTUS46 KPQR 280413 AAA
TAFTTD
TAF AMD
KTTD 280413Z 2804/2824 33010KT P6SM SCT070
     FM281000 00000KT P6SM SCT015
     FM281800 27003KT P6SM SCT250=



000
FTUS46 KPQR 280413 AAA
TAFTTD
TAF AMD
KTTD 280413Z 2804/2824 33010KT P6SM SCT070
     FM281000 00000KT P6SM SCT015
     FM281800 27003KT P6SM SCT250=



000
FTUS46 KPQR 280413 AAB
TAFPDX
TAF AMD
KPDX 280413Z 2804/2824 34010KT P6SM SKC
     FM281100 32005KT P6SM SCT025
     FM281700 34007KT P6SM SCT250=



000
FTUS46 KPQR 280413 AAB
TAFPDX
TAF AMD
KPDX 280413Z 2804/2824 34010KT P6SM SKC
     FM281100 32005KT P6SM SCT025
     FM281700 34007KT P6SM SCT250=



000
FTUS46 KPQR 280412 AAA
TAFONP
TAF AMD
KONP 280412Z 2804/2824 35012KT P6SM SKC
     FM280800 36008KT P6SM BKN015
     FM281700 35010KT P6SM SKC
     FM281900 35018G24KT P6SM SKC=



000
FTUS46 KPQR 280300 AAA
TAFPDX
TAF AMD
KPDX 280300Z 2803/2824 31010KT P6SM FEW060
     FM281100 32005KT P6SM SCT025
     FM281700 34007KT P6SM SCT250=



000
FTUS46 KPQR 280300 AAA
TAFPDX
TAF AMD
KPDX 280300Z 2803/2824 31010KT P6SM FEW060
     FM281100 32005KT P6SM SCT025
     FM281700 34007KT P6SM SCT250=



000
FTUS46 KPQR 280300 AAA
TAFPDX
TAF AMD
KPDX 280300Z 2803/2824 31010KT P6SM FEW060
     FM281100 32005KT P6SM SCT025
     FM281700 34007KT P6SM SCT250=



000
FTUS46 KPQR 280109 AAA
TAFSLE
TAF AMD
KSLE 280109Z 2801/2824 02010KT P6SM SCT060
     FM280700 VRB03KT P6SM SKC
     FM282100 01009G15KT P6SM SKC=



000
FTUS46 KPQR 272324
TAFPDX
TAF
KPDX 272324Z 2800/2824 31012KT P6SM SCT060
     FM281100 32005KT P6SM SCT025
     FM281700 34007KT P6SM SCT250=



000
FTUS46 KPQR 272324
TAFSLE
TAF
KSLE 272324Z 2800/2824 33010KT P6SM SCT060
     FM280700 VRB03KT P6SM SKC
     FM282100 01009G15KT P6SM SKC=



000
FTUS46 KPQR 272324
TAFEUG
TAF
KEUG 272324Z 2800/2824 36012KT P6SM SCT060
     FM280700 36003KT P6SM SKC
     FM281500 36006KT P6SM SKC
     FM281800 01013KT P6SM SKC=



000
FTUS46 KPQR 272324
TAFONP
TAF
KONP 272324Z 2800/2824 35014G20KT P6SM SKC
     FM280800 36008KT P6SM BKN015
     FM281700 35010KT P6SM SKC
     FM281900 35018G24KT P6SM SKC=



000
FTUS46 KPQR 272324
TAFTTD
TAF
KTTD 272324Z 2800/2824 28010KT P6SM SCT070
     FM281000 00000KT P6SM SCT015
     FM281800 27003KT P6SM SCT250=



000
FTUS46 KPQR 272324
TAFAST
TAF
KAST 272324Z 2800/2824 31012G21KT P6SM FEW030
     FM280300 32007KT P6SM OVC020
     FM281100 35003KT P6SM OVC015
     FM281800 35007KT P6SM OVC100
     FM282300 32014G20KT P6SM SKC=



000
FTUS46 KPQR 272324
TAFEUG
TAF
KEUG 272324Z 2800/2824 36012KT P6SM SCT060
     FM280700 36003KT P6SM SKC
     FM281500 36006KT P6SM SKC
     FM281800 01013KT P6SM SKC=



000
FTUS46 KPQR 272324
TAFSLE
TAF
KSLE 272324Z 2800/2824 33010KT P6SM SCT060
     FM280700 VRB03KT P6SM SKC
     FM282100 01009G15KT P6SM SKC=



000
FTUS46 KPQR 272324
TAFHIO
TAF
KHIO 272324Z 2800/2824 33007KT P6SM SCT060 BKN080
     FM280400 32004KT P6SM SCT250
     FM281100 31004KT P6SM SCT025
     FM282300 36010KT P6SM SKC=



000
FTUS46 KPQR 272324
TAFONP
TAF
KONP 272324Z 2800/2824 35014G20KT P6SM SKC
     FM280800 36008KT P6SM BKN015
     FM281700 35010KT P6SM SKC
     FM281900 35018G24KT P6SM SKC=



000
FTUS46 KPQR 272324
TAFHIO
TAF
KHIO 272324Z 2800/2824 33007KT P6SM SCT060 BKN080
     FM280400 32004KT P6SM SCT250
     FM281100 31004KT P6SM SCT025
     FM282300 36010KT P6SM SKC=



000
FTUS46 KPQR 272324
TAFSLE
TAF
KSLE 272324Z 2800/2824 33010KT P6SM SCT060
     FM280700 VRB03KT P6SM SKC
     FM282100 01009G15KT P6SM SKC=



000
FTUS46 KPQR 272324
TAFAST
TAF
KAST 272324Z 2800/2824 31012G21KT P6SM FEW030
     FM280300 32007KT P6SM OVC020
     FM281100 35003KT P6SM OVC015
     FM281800 35007KT P6SM OVC100
     FM282300 32014G20KT P6SM SKC=



000
FTUS46 KPQR 272324
TAFSLE
TAF
KSLE 272324Z 2800/2824 33010KT P6SM SCT060
     FM280700 VRB03KT P6SM SKC
     FM282100 01009G15KT P6SM SKC=



000
FTUS46 KPQR 272324
TAFEUG
TAF
KEUG 272324Z 2800/2824 36012KT P6SM SCT060
     FM280700 36003KT P6SM SKC
     FM281500 36006KT P6SM SKC
     FM281800 01013KT P6SM SKC=



000
FTUS46 KPQR 272324
TAFHIO
TAF
KHIO 272324Z 2800/2824 33007KT P6SM SCT060 BKN080
     FM280400 32004KT P6SM SCT250
     FM281100 31004KT P6SM SCT025
     FM282300 36010KT P6SM SKC=



000
FTUS46 KPQR 272324
TAFTTD
TAF
KTTD 272324Z 2800/2824 28010KT P6SM SCT070
     FM281000 00000KT P6SM SCT015
     FM281800 27003KT P6SM SCT250=



000
FTUS46 KPQR 272324
TAFTTD
TAF
KTTD 272324Z 2800/2824 28010KT P6SM SCT070
     FM281000 00000KT P6SM SCT015
     FM281800 27003KT P6SM SCT250=



000
FTUS46 KPQR 272324
TAFPDX
TAF
KPDX 272324Z 2800/2824 31012KT P6SM SCT060
     FM281100 32005KT P6SM SCT025
     FM281700 34007KT P6SM SCT250=



000
FTUS46 KPQR 272324
TAFEUG
TAF
KEUG 272324Z 2800/2824 36012KT P6SM SCT060
     FM280700 36003KT P6SM SKC
     FM281500 36006KT P6SM SKC
     FM281800 01013KT P6SM SKC=



000
FTUS46 KPQR 272324
TAFONP
TAF
KONP 272324Z 2800/2824 35014G20KT P6SM SKC
     FM280800 36008KT P6SM BKN015
     FM281700 35010KT P6SM SKC
     FM281900 35018G24KT P6SM SKC=



000
FTUS46 KPQR 272324
TAFONP
TAF
KONP 272324Z 2800/2824 35014G20KT P6SM SKC
     FM280800 36008KT P6SM BKN015
     FM281700 35010KT P6SM SKC
     FM281900 35018G24KT P6SM SKC=



000
FTUS46 KPQR 272324
TAFHIO
TAF
KHIO 272324Z 2800/2824 33007KT P6SM SCT060 BKN080
     FM280400 32004KT P6SM SCT250
     FM281100 31004KT P6SM SCT025
     FM282300 36010KT P6SM SKC=



000
FTUS46 KPQR 272324
TAFTTD
TAF
KTTD 272324Z 2800/2824 28010KT P6SM SCT070
     FM281000 00000KT P6SM SCT015
     FM281800 27003KT P6SM SCT250=



000
FTUS46 KPQR 272052 AAA
TAFONP
TAF AMD
KONP 272052Z 2721/2818 35014G20KT P6SM FEW300
     FM280800 36008KT P6SM SCT020
     FM281300 05005KT P6SM FEW100=



000
FTUS46 KPQR 272052 AAA
TAFONP
TAF AMD
KONP 272052Z 2721/2818 35014G20KT P6SM FEW300
     FM280800 36008KT P6SM SCT020
     FM281300 05005KT P6SM FEW100=



000
FTUS46 KPQR 272052 AAA
TAFONP
TAF AMD
KONP 272052Z 2721/2818 35014G20KT P6SM FEW300
     FM280800 36008KT P6SM SCT020
     FM281300 05005KT P6SM FEW100=



000
FTUS46 KPQR 272052 AAA
TAFONP
TAF AMD
KONP 272052Z 2721/2818 35014G20KT P6SM FEW300
     FM280800 36008KT P6SM SCT020
     FM281300 05005KT P6SM FEW100=



000
FTUS46 KPQR 272051 AAA
TAFPDX
TAF AMD
KPDX 272051Z 2721/2818 31009KT P6SM FEW040 SCT060
     FM281100 32005KT P6SM SCT025
     FM281400 32003KT P6SM BKN025
     FM281700 34007KT P6SM FEW035 SCT250=



000
FTUS46 KPQR 272051 AAA
TAFPDX
TAF AMD
KPDX 272051Z 2721/2818 31009KT P6SM FEW040 SCT060
     FM281100 32005KT P6SM SCT025
     FM281400 32003KT P6SM BKN025
     FM281700 34007KT P6SM FEW035 SCT250=



000
FTUS46 KPQR 272051 AAA
TAFPDX
TAF AMD
KPDX 272051Z 2721/2818 31009KT P6SM FEW040 SCT060
     FM281100 32005KT P6SM SCT025
     FM281400 32003KT P6SM BKN025
     FM281700 34007KT P6SM FEW035 SCT250=



000
FTUS46 KPQR 271728
TAFPDX
TAF
KPDX 271728Z 2718/2818 31005KT P6SM SCT030
     FM272100 32009KT P6SM FEW300
     FM281100 32005KT P6SM SCT025
     FM281400 32003KT P6SM BKN025=



000
FTUS46 KPQR 271728
TAFTTD
TAF
KTTD 271728Z 2718/2818 27003KT P6SM SCT030
     FM272100 29006KT P6SM FEW300
     FM281000 00000KT P6SM SCT025
     FM281200 00000KT P6SM OVC025=



000
FTUS46 KPQR 271728
TAFHIO
TAF
KHIO 271728Z 2718/2818 31005KT P6SM SCT030
     FM272000 33009KT P6SM FEW300
     FM281100 31004KT P6SM SCT025
     FM281400 32003KT P6SM BKN025=



000
FTUS46 KPQR 271728
TAFEUG
TAF
KEUG 271728Z 2718/2818 31008KT P6SM SCT030
     FM272000 35011KT P6SM FEW300
     FM280400 02004KT P6SM SKC
     FM281500 36006KT P6SM SKC=



000
FTUS46 KPQR 271728
TAFSLE
TAF
KSLE 271728Z 2718/2818 VRB03KT P6SM BKN050
     FM271900 31005KT P6SM SCT030
     FM272200 35010KT P6SM FEW300
     FM280800 33004KT P6SM SKC
     FM281500 36006KT P6SM SKC=



000
FTUS46 KPQR 271728
TAFHIO
TAF
KHIO 271728Z 2718/2818 31005KT P6SM SCT030
     FM272000 33009KT P6SM FEW300
     FM281100 31004KT P6SM SCT025
     FM281400 32003KT P6SM BKN025=



000
FTUS46 KPQR 271728
TAFTTD
TAF
KTTD 271728Z 2718/2818 27003KT P6SM SCT030
     FM272100 29006KT P6SM FEW300
     FM281000 00000KT P6SM SCT025
     FM281200 00000KT P6SM OVC025=



000
FTUS46 KPQR 271728
TAFAST
TAF
KAST 271728Z 2718/2818 31008KT P6SM SCT050
     FM272300 31012G18KT P6SM FEW300
     FM280500 32007KT P6SM OVC020
     FM281100 35003KT P6SM OVC015=



000
FTUS46 KPQR 271728
TAFPDX
TAF
KPDX 271728Z 2718/2818 31005KT P6SM SCT030
     FM272100 32009KT P6SM FEW300
     FM281100 32005KT P6SM SCT025
     FM281400 32003KT P6SM BKN025=



000
FTUS46 KPQR 271728
TAFAST
TAF
KAST 271728Z 2718/2818 31008KT P6SM SCT050
     FM272300 31012G18KT P6SM FEW300
     FM280500 32007KT P6SM OVC020
     FM281100 35003KT P6SM OVC015=



000
FTUS46 KPQR 271728
TAFONP
TAF
KONP 271728Z 2718/2818 34007KT P6SM SCT300
     FM272200 35014G20KT P6SM FEW300
     FM280800 36008KT P6SM SCT020
     FM281300 05005KT P6SM FEW100=



000
FTUS46 KPQR 271728
TAFONP
TAF
KONP 271728Z 2718/2818 34007KT P6SM SCT300
     FM272200 35014G20KT P6SM FEW300
     FM280800 36008KT P6SM SCT020
     FM281300 05005KT P6SM FEW100=



000
FTUS46 KPQR 271728
TAFEUG
TAF
KEUG 271728Z 2718/2818 31008KT P6SM SCT030
     FM272000 35011KT P6SM FEW300
     FM280400 02004KT P6SM SKC
     FM281500 36006KT P6SM SKC=



000
FTUS46 KPQR 271728
TAFSLE
TAF
KSLE 271728Z 2718/2818 VRB03KT P6SM BKN050
     FM271900 31005KT P6SM SCT030
     FM272200 35010KT P6SM FEW300
     FM280800 33004KT P6SM SKC
     FM281500 36006KT P6SM SKC=



000
FTUS46 KPQR 271728
TAFTTD
TAF
KTTD 271728Z 2718/2818 27003KT P6SM SCT030
     FM272100 29006KT P6SM FEW300
     FM281000 00000KT P6SM SCT025
     FM281200 00000KT P6SM OVC025=



000
FTUS46 KPQR 271728
TAFHIO
TAF
KHIO 271728Z 2718/2818 31005KT P6SM SCT030
     FM272000 33009KT P6SM FEW300
     FM281100 31004KT P6SM SCT025
     FM281400 32003KT P6SM BKN025=



000
FTUS46 KPQR 271728
TAFEUG
TAF
KEUG 271728Z 2718/2818 31008KT P6SM SCT030
     FM272000 35011KT P6SM FEW300
     FM280400 02004KT P6SM SKC
     FM281500 36006KT P6SM SKC=



000
FTUS46 KPQR 271728
TAFSLE
TAF
KSLE 271728Z 2718/2818 VRB03KT P6SM BKN050
     FM271900 31005KT P6SM SCT030
     FM272200 35010KT P6SM FEW300
     FM280800 33004KT P6SM SKC
     FM281500 36006KT P6SM SKC=



000
FTUS46 KPQR 271728
TAFPDX
TAF
KPDX 271728Z 2718/2818 31005KT P6SM SCT030
     FM272100 32009KT P6SM FEW300
     FM281100 32005KT P6SM SCT025
     FM281400 32003KT P6SM BKN025=



000
FTUS46 KPQR 271728
TAFPDX
TAF
KPDX 271728Z 2718/2818 31005KT P6SM SCT030
     FM272100 32009KT P6SM FEW300
     FM281100 32005KT P6SM SCT025
     FM281400 32003KT P6SM BKN025=



000
FTUS46 KPQR 271728
TAFAST
TAF
KAST 271728Z 2718/2818 31008KT P6SM SCT050
     FM272300 31012G18KT P6SM FEW300
     FM280500 32007KT P6SM OVC020
     FM281100 35003KT P6SM OVC015=



000
FTUS46 KPQR 271728
TAFSLE
TAF
KSLE 271728Z 2718/2818 VRB03KT P6SM BKN050
     FM271900 31005KT P6SM SCT030
     FM272200 35010KT P6SM FEW300
     FM280800 33004KT P6SM SKC
     FM281500 36006KT P6SM SKC=



000
FTUS46 KPQR 271728
TAFAST
TAF
KAST 271728Z 2718/2818 31008KT P6SM SCT050
     FM272300 31012G18KT P6SM FEW300
     FM280500 32007KT P6SM OVC020
     FM281100 35003KT P6SM OVC015=



000
FTUS46 KPQR 271728
TAFONP
TAF
KONP 271728Z 2718/2818 34007KT P6SM SCT300
     FM272200 35014G20KT P6SM FEW300
     FM280800 36008KT P6SM SCT020
     FM281300 05005KT P6SM FEW100=



000
FTUS46 KPQR 271728
TAFHIO
TAF
KHIO 271728Z 2718/2818 31005KT P6SM SCT030
     FM272000 33009KT P6SM FEW300
     FM281100 31004KT P6SM SCT025
     FM281400 32003KT P6SM BKN025=



000
FTUS46 KPQR 271728
TAFTTD
TAF
KTTD 271728Z 2718/2818 27003KT P6SM SCT030
     FM272100 29006KT P6SM FEW300
     FM281000 00000KT P6SM SCT025
     FM281200 00000KT P6SM OVC025=



000
FTUS46 KPQR 271728
TAFONP
TAF
KONP 271728Z 2718/2818 34007KT P6SM SCT300
     FM272200 35014G20KT P6SM FEW300
     FM280800 36008KT P6SM SCT020
     FM281300 05005KT P6SM FEW100=



000
FTUS46 KPQR 271728
TAFEUG
TAF
KEUG 271728Z 2718/2818 31008KT P6SM SCT030
     FM272000 35011KT P6SM FEW300
     FM280400 02004KT P6SM SKC
     FM281500 36006KT P6SM SKC=



000
FTUS46 KPQR 271456 AAA
TAFPDX
TAF AMD
KPDX 271456Z 2715/2812 VRB03KT P6SM BKN040
     FM271700 31005KT P6SM SCT030
     FM272100 32009KT P6SM FEW300
     FM281100 32005KT P6SM SCT025=



000
FTUS46 KPQR 271456 AAA
TAFPDX
TAF AMD
KPDX 271456Z 2715/2812 VRB03KT P6SM BKN040
     FM271700 31005KT P6SM SCT030
     FM272100 32009KT P6SM FEW300
     FM281100 32005KT P6SM SCT025=



000
FTUS46 KPQR 271456 AAA
TAFPDX
TAF AMD
KPDX 271456Z 2715/2812 VRB03KT P6SM BKN040
     FM271700 31005KT P6SM SCT030
     FM272100 32009KT P6SM FEW300
     FM281100 32005KT P6SM SCT025=



000
FTUS46 KPQR 271456 AAA
TAFPDX
TAF AMD
KPDX 271456Z 2715/2812 VRB03KT P6SM BKN040
     FM271700 31005KT P6SM SCT030
     FM272100 32009KT P6SM FEW300
     FM281100 32005KT P6SM SCT025=



000
FTUS46 KPQR 271354 CCA
TAFTTD
TAF COR
KTTD 271354Z 2714/2812 VRB03KT P6SM SCT020
     FM271700 27003KT P6SM SCT030
     FM272100 29006KT P6SM FEW300
     FM281100 00000KT P6SM SCT025=



000
FTUS46 KPQR 271354 CCA
TAFTTD
TAF COR
KTTD 271354Z 2714/2812 VRB03KT P6SM SCT020
     FM271700 27003KT P6SM SCT030
     FM272100 29006KT P6SM FEW300
     FM281100 00000KT P6SM SCT025=



000
FTUS46 KPQR 271353 AAA
TAFTTD
TAF AMD
KTTD 271353Z 2714/2812 VRB03KT P6SM BKN020
     FM271700 27003KT P6SM SCT030
     FM272100 29006KT P6SM FEW300
     FM281100 00000KT P6SM SCT025=



000
FTUS46 KPQR 271353 AAA
TAFTTD
TAF AMD
KTTD 271353Z 2714/2812 VRB03KT P6SM BKN020
     FM271700 27003KT P6SM SCT030
     FM272100 29006KT P6SM FEW300
     FM281100 00000KT P6SM SCT025=



000
FTUS46 KPQR 271352 AAA
TAFONP
TAF AMD
KONP 271352Z 2714/2812 VRB03KT P6SM SCT025
     FM271700 34007KT P6SM SCT300
     FM272200 35014G20KT P6SM FEW300
     FM280800 36008KT P6SM SCT020=



000
FTUS46 KPQR 271352 AAA
TAFONP
TAF AMD
KONP 271352Z 2714/2812 VRB03KT P6SM SCT025
     FM271700 34007KT P6SM SCT300
     FM272200 35014G20KT P6SM FEW300
     FM280800 36008KT P6SM SCT020=



000
FTUS46 KPQR 271130
TAFTTD
TAF
KTTD 271130Z 2712/2812 VRB03KT P6SM BKN040
     FM271700 27003KT P6SM SCT030
     FM272100 29006KT P6SM FEW300
     FM281100 00000KT P6SM SCT025=



000
FTUS46 KPQR 271130
TAFHIO
TAF
KHIO 271130Z 2712/2812 VRB03KT P6SM BKN050
     FM271700 31005KT P6SM SCT030
     FM272000 33009KT P6SM FEW300
     FM281100 31004KT P6SM SCT025=



000
FTUS46 KPQR 271130
TAFTTD
TAF
KTTD 271130Z 2712/2812 VRB03KT P6SM BKN040
     FM271700 27003KT P6SM SCT030
     FM272100 29006KT P6SM FEW300
     FM281100 00000KT P6SM SCT025=



000
FTUS46 KPQR 271130
TAFAST
TAF
KAST 271130Z 2712/2812 32005KT P6SM SCT025
     FM271800 31008KT P6SM SCT300
     FM272300 31012G18KT P6SM FEW300
     FM280500 32007KT P6SM OVC020=



000
FTUS46 KPQR 271130
TAFPDX
TAF
KPDX 271130Z 2712/2812 VRB03KT P6SM BKN040
     FM271700 31005KT P6SM SCT030
     FM272100 32009KT P6SM FEW300
     FM281100 32005KT P6SM SCT025=



000
FTUS46 KPQR 271130
TAFONP
TAF
KONP 271130Z 2712/2812 VRB03KT P6SM SCT025
      TEMPO 2714/2717 BKN025
     FM271700 34007KT P6SM SCT300
     FM272200 35014G20KT P6SM FEW300
     FM280800 36008KT P6SM SCT020=



000
FTUS46 KPQR 271130
TAFHIO
TAF
KHIO 271130Z 2712/2812 VRB03KT P6SM BKN050
     FM271700 31005KT P6SM SCT030
     FM272000 33009KT P6SM FEW300
     FM281100 31004KT P6SM SCT025=



000
FTUS46 KPQR 271130
TAFEUG
TAF
KEUG 271130Z 2712/2812 VRB03KT P6SM SCT030 BKN040
     FM271600 31008KT P6SM SCT030
     FM272000 35011KT P6SM FEW300
     FM280400 02004KT P6SM SKC=



000
FTUS46 KPQR 271130
TAFSLE
TAF
KSLE 271130Z 2712/2812 VRB03KT P6SM BKN050
     FM271700 31005KT P6SM SCT030
     FM272200 35010KT P6SM FEW300
     FM280800 34004KT P6SM SKC=



000
FTUS46 KPQR 271130
TAFSLE
TAF
KSLE 271130Z 2712/2812 VRB03KT P6SM BKN050
     FM271700 31005KT P6SM SCT030
     FM272200 35010KT P6SM FEW300
     FM280800 34004KT P6SM SKC=



000
FTUS46 KPQR 271130
TAFEUG
TAF
KEUG 271130Z 2712/2812 VRB03KT P6SM SCT030 BKN040
     FM271600 31008KT P6SM SCT030
     FM272000 35011KT P6SM FEW300
     FM280400 02004KT P6SM SKC=



000
FTUS46 KPQR 271130
TAFTTD
TAF
KTTD 271130Z 2712/2812 VRB03KT P6SM BKN040
     FM271700 27003KT P6SM SCT030
     FM272100 29006KT P6SM FEW300
     FM281100 00000KT P6SM SCT025=



000
FTUS46 KPQR 271130
TAFAST
TAF
KAST 271130Z 2712/2812 32005KT P6SM SCT025
     FM271800 31008KT P6SM SCT300
     FM272300 31012G18KT P6SM FEW300
     FM280500 32007KT P6SM OVC020=



000
FTUS46 KPQR 271130
TAFAST
TAF
KAST 271130Z 2712/2812 32005KT P6SM SCT025
     FM271800 31008KT P6SM SCT300
     FM272300 31012G18KT P6SM FEW300
     FM280500 32007KT P6SM OVC020=



000
FTUS46 KPQR 271130
TAFEUG
TAF
KEUG 271130Z 2712/2812 VRB03KT P6SM SCT030 BKN040
     FM271600 31008KT P6SM SCT030
     FM272000 35011KT P6SM FEW300
     FM280400 02004KT P6SM SKC=



000
FTUS46 KPQR 271130
TAFTTD
TAF
KTTD 271130Z 2712/2812 VRB03KT P6SM BKN040
     FM271700 27003KT P6SM SCT030
     FM272100 29006KT P6SM FEW300
     FM281100 00000KT P6SM SCT025=



000
FTUS46 KPQR 271130
TAFSLE
TAF
KSLE 271130Z 2712/2812 VRB03KT P6SM BKN050
     FM271700 31005KT P6SM SCT030
     FM272200 35010KT P6SM FEW300
     FM280800 34004KT P6SM SKC=



000
FTUS46 KPQR 271130
TAFPDX
TAF
KPDX 271130Z 2712/2812 VRB03KT P6SM BKN040
     FM271700 31005KT P6SM SCT030
     FM272100 32009KT P6SM FEW300
     FM281100 32005KT P6SM SCT025=



000
FTUS46 KPQR 271130
TAFHIO
TAF
KHIO 271130Z 2712/2812 VRB03KT P6SM BKN050
     FM271700 31005KT P6SM SCT030
     FM272000 33009KT P6SM FEW300
     FM281100 31004KT P6SM SCT025=



000
FTUS46 KPQR 271130
TAFONP
TAF
KONP 271130Z 2712/2812 VRB03KT P6SM SCT025
      TEMPO 2714/2717 BKN025
     FM271700 34007KT P6SM SCT300
     FM272200 35014G20KT P6SM FEW300
     FM280800 36008KT P6SM SCT020=



000
FTUS46 KPQR 271130
TAFEUG
TAF
KEUG 271130Z 2712/2812 VRB03KT P6SM SCT030 BKN040
     FM271600 31008KT P6SM SCT030
     FM272000 35011KT P6SM FEW300
     FM280400 02004KT P6SM SKC=



000
FTUS46 KPQR 271130
TAFPDX
TAF
KPDX 271130Z 2712/2812 VRB03KT P6SM BKN040
     FM271700 31005KT P6SM SCT030
     FM272100 32009KT P6SM FEW300
     FM281100 32005KT P6SM SCT025=



000
FTUS46 KPQR 271130
TAFHIO
TAF
KHIO 271130Z 2712/2812 VRB03KT P6SM BKN050
     FM271700 31005KT P6SM SCT030
     FM272000 33009KT P6SM FEW300
     FM281100 31004KT P6SM SCT025=



000
FTUS46 KPQR 271130
TAFONP
TAF
KONP 271130Z 2712/2812 VRB03KT P6SM SCT025
      TEMPO 2714/2717 BKN025
     FM271700 34007KT P6SM SCT300
     FM272200 35014G20KT P6SM FEW300
     FM280800 36008KT P6SM SCT020=



000
FTUS46 KPQR 271006 AAB
TAFONP
TAF AMD
KONP 271006Z 2710/2806 VRB03KT P6SM SCT015
     FM271300 VRB03KT 2SM BR SCT001
     FM271600 36007KT P6SM SCT025 SCT300
     FM272200 33014G20KT P6SM SKC=



000
FTUS46 KPQR 271006 AAB
TAFONP
TAF AMD
KONP 271006Z 2710/2806 VRB03KT P6SM SCT015
     FM271300 VRB03KT 2SM BR SCT001
     FM271600 36007KT P6SM SCT025 SCT300
     FM272200 33014G20KT P6SM SKC=



000
FTUS46 KPQR 270853 AAA
TAFPDX
TAF AMD
KPDX 270853Z 2709/2806 32004KT P6SM FEW045 SCT080
     FM271700 31005KT P6SM SCT030
     FM272100 32009KT P6SM FEW300=



000
FTUS46 KPQR 270853 AAA
TAFPDX
TAF AMD
KPDX 270853Z 2709/2806 32004KT P6SM FEW045 SCT080
     FM271700 31005KT P6SM SCT030
     FM272100 32009KT P6SM FEW300=



000
FTUS46 KPQR 270802 AAA
TAFEUG
TAF AMD
KEUG 270802Z 2708/2806 VRB03KT P6SM BKN025 OVC040
     FM271600 31008KT P6SM SCT030
     FM272000 35011KT P6SM FEW300=



000
FTUS46 KPQR 270752 AAA
TAFONP
TAF AMD
KONP 270752Z 2708/2806 VRB03KT P6SM SCT015
     FM271000 VRB03KT 2SM BR SCT001
     FM271600 36007KT P6SM SCT025 SCT300
     FM272200 33014G20KT P6SM SKC=



000
FTUS46 KPQR 270752 AAA
TAFONP
TAF AMD
KONP 270752Z 2708/2806 VRB03KT P6SM SCT015
     FM271000 VRB03KT 2SM BR SCT001
     FM271600 36007KT P6SM SCT025 SCT300
     FM272200 33014G20KT P6SM SKC=



000
FTUS46 KPQR 270752 AAA
TAFONP
TAF AMD
KONP 270752Z 2708/2806 VRB03KT P6SM SCT015
     FM271000 VRB03KT 2SM BR SCT001
     FM271600 36007KT P6SM SCT025 SCT300
     FM272200 33014G20KT P6SM SKC=



000
FTUS46 KPQR 270752 AAA
TAFONP
TAF AMD
KONP 270752Z 2708/2806 VRB03KT P6SM SCT015
     FM271000 VRB03KT 2SM BR SCT001
     FM271600 36007KT P6SM SCT025 SCT300
     FM272200 33014G20KT P6SM SKC=



    US Dept of Commerce
    National Oceanic and Atmospheric Administration
    National Weather Service
    1325 East West Highway
    Silver Spring, MD 20910
    Page Author: NWS Internet Services Team
Disclaimer
Information Quality
Credits
Glossary
Privacy Policy
Freedom of Information Act (FOIA)
About Us
Career Opportunities